sensor_id;sensor_type;location;lat;lon;timestamp;pressure;altitude;pressure_sealevel;temperature;humidity
65010;BME280;51556;50.002;22.014;2023-03-11T00:01:38;96700.56;;;11.09;72.63
65010;BME280;51556;50.002;22.014;2023-03-11T00:04:05;96704.23;;;11.15;72.43
65010;BME280;51556;50.002;22.014;2023-03-11T00:06:31;96704.84;;;11.18;72.53
65010;BME280;51556;50.002;22.014;2023-03-11T00:08:58;96705.91;;;11.17;72.38
65010;BME280;51556;50.002;22.014;2023-03-11T00:11:24;96704.95;;;11.16;72.34
65010;BME280;51556;50.002;22.014;2023-03-11T00:13:49;96699.50;;;11.14;72.14
65010;BME280;51556;50.002;22.014;2023-03-11T00:16:15;96693.20;;;11.18;72.14
65010;BME280;51556;50.002;22.014;2023-03-11T00:18:40;96696.79;;;11.20;71.95
65010;BME280;51556;50.002;22.014;2023-03-11T00:21:14;96690.60;;;11.22;71.77
65010;BME280;51556;50.002;22.014;2023-03-11T00:23:40;96693.45;;;11.24;71.65
65010;BME280;51556;50.002;22.014;2023-03-11T00:26:06;96689.92;;;11.20;71.60
65010;BME280;51556;50.002;22.014;2023-03-11T00:28:31;96687.23;;;11.13;71.50
65010;BME280;51556;50.002;22.014;2023-03-11T00:30:57;96681.83;;;11.10;71.58
65010;BME280;51556;50.002;22.014;2023-03-11T00:33:22;96676.27;;;11.06;71.48
65010;BME280;51556;50.002;22.014;2023-03-11T00:35:49;96672.94;;;11.01;71.49
65010;BME280;51556;50.002;22.014;2023-03-11T00:38:16;96671.14;;;10.99;71.61
65010;BME280;51556;50.002;22.014;2023-03-11T00:40:43;96668.46;;;10.97;71.30
65010;BME280;51556;50.002;22.014;2023-03-11T00:43:09;96670.48;;;10.93;71.38
65010;BME280;51556;50.002;22.014;2023-03-11T00:45:34;96669.39;;;10.89;71.47
65010;BME280;51556;50.002;22.014;2023-03-11T00:48:00;96667.97;;;10.87;71.25
65010;BME280;51556;50.002;22.014;2023-03-11T00:50:29;96664.80;;;10.84;71.29
65010;BME280;51556;50.002;22.014;2023-03-11T00:52:55;96659.98;;;10.78;71.06
65010;BME280;51556;50.002;22.014;2023-03-11T00:55:26;96658.60;;;10.72;71.22
65010;BME280;51556;50.002;22.014;2023-03-11T00:57:59;96657.75;;;10.66;71.36
65010;BME280;51556;50.002;22.014;2023-03-11T01:00:27;96655.42;;;10.62;71.61
65010;BME280;51556;50.002;22.014;2023-03-11T01:02:54;96655.59;;;10.57;71.67
65010;BME280;51556;50.002;22.014;2023-03-11T01:05:21;96658.07;;;10.54;71.36
65010;BME280;51556;50.002;22.014;2023-03-11T01:07:48;96660.02;;;10.51;71.73
65010;BME280;51556;50.002;22.014;2023-03-11T01:10:14;96655.34;;;10.50;71.47
65010;BME280;51556;50.002;22.014;2023-03-11T01:12:41;96654.23;;;10.48;71.57
65010;BME280;51556;50.002;22.014;2023-03-11T01:15:08;96648.75;;;10.44;71.70
65010;BME280;51556;50.002;22.014;2023-03-11T01:17:34;96644.05;;;10.41;71.75
65010;BME280;51556;50.002;22.014;2023-03-11T01:19:59;96642.55;;;10.37;71.70
65010;BME280;51556;50.002;22.014;2023-03-11T01:22:25;96638.30;;;10.35;71.58
65010;BME280;51556;50.002;22.014;2023-03-11T01:24:50;96641.14;;;10.37;71.87
65010;BME280;51556;50.002;22.014;2023-03-11T01:27:16;96637.06;;;10.40;71.70
65010;BME280;51556;50.002;22.014;2023-03-11T01:29:41;96637.30;;;10.37;71.68
65010;BME280;51556;50.002;22.014;2023-03-11T01:32:07;96642.36;;;10.37;72.03
65010;BME280;51556;50.002;22.014;2023-03-11T01:34:33;96642.64;;;10.38;71.85
65010;BME280;51556;50.002;22.014;2023-03-11T01:37:01;96646.48;;;10.39;71.98
65010;BME280;51556;50.002;22.014;2023-03-11T01:39:27;96651.06;;;10.41;71.85
65010;BME280;51556;50.002;22.014;2023-03-11T01:41:53;96647.23;;;10.40;71.94
65010;BME280;51556;50.002;22.014;2023-03-11T01:44:20;96644.80;;;10.40;72.12
65010;BME280;51556;50.002;22.014;2023-03-11T01:49:18;96636.27;;;10.39;72.01
65010;BME280;51556;50.002;22.014;2023-03-11T01:51:47;96633.64;;;10.41;72.28
65010;BME280;51556;50.002;22.014;2023-03-11T01:54:21;96627.82;;;10.41;72.19
65010;BME280;51556;50.002;22.014;2023-03-11T01:56:49;96626.55;;;10.37;72.24
65010;BME280;51556;50.002;22.014;2023-03-11T01:59:20;96626.94;;;10.34;72.31
65010;BME280;51556;50.002;22.014;2023-03-11T02:04:40;96628.95;;;10.33;72.80
65010;BME280;51556;50.002;22.014;2023-03-11T02:07:07;96631.95;;;10.35;72.66
65010;BME280;51556;50.002;22.014;2023-03-11T02:09:33;96629.31;;;10.35;72.74
65010;BME280;51556;50.002;22.014;2023-03-11T02:11:59;96627.23;;;10.34;72.84
65010;BME280;51556;50.002;22.014;2023-03-11T02:14:27;96618.42;;;10.35;72.82
65010;BME280;51556;50.002;22.014;2023-03-11T02:16:54;96619.46;;;10.40;72.67
65010;BME280;51556;50.002;22.014;2023-03-11T02:22:00;96626.52;;;10.45;73.08
65010;BME280;51556;50.002;22.014;2023-03-11T02:27:27;96624.23;;;10.45;73.02
65010;BME280;51556;50.002;22.014;2023-03-11T02:29:53;96618.61;;;10.47;72.89
65010;BME280;51556;50.002;22.014;2023-03-11T02:32:21;96613.83;;;10.45;72.92
65010;BME280;51556;50.002;22.014;2023-03-11T02:34:46;96608.76;;;10.42;73.02
65010;BME280;51556;50.002;22.014;2023-03-11T02:37:14;96607.78;;;10.36;73.02
65010;BME280;51556;50.002;22.014;2023-03-11T02:39:43;96608.84;;;10.34;73.38
65010;BME280;51556;50.002;22.014;2023-03-11T02:44:38;96614.83;;;10.36;73.41
65010;BME280;51556;50.002;22.014;2023-03-11T02:47:06;96614.58;;;10.37;73.68
65010;BME280;51556;50.002;22.014;2023-03-11T02:49:33;96612.05;;;10.38;73.33
65010;BME280;51556;50.002;22.014;2023-03-11T02:51:59;96611.80;;;10.34;73.44
65010;BME280;51556;50.002;22.014;2023-03-11T02:54:24;96608.24;;;10.32;73.49
65010;BME280;51556;50.002;22.014;2023-03-11T02:56:50;96606.11;;;10.30;73.56
65010;BME280;51556;50.002;22.014;2023-03-11T02:59:15;96603.11;;;10.28;73.68
65010;BME280;51556;50.002;22.014;2023-03-11T03:01:40;96607.02;;;10.24;73.44
65010;BME280;51556;50.002;22.014;2023-03-11T03:04:06;96606.56;;;10.26;73.74
65010;BME280;51556;50.002;22.014;2023-03-11T03:06:31;96602.14;;;10.24;73.68
65010;BME280;51556;50.002;22.014;2023-03-11T03:08:57;96596.41;;;10.20;73.67
65010;BME280;51556;50.002;22.014;2023-03-11T03:11:22;96598.41;;;10.16;73.79
65010;BME280;51556;50.002;22.014;2023-03-11T03:13:48;96601.52;;;10.14;73.97
65010;BME280;51556;50.002;22.014;2023-03-11T03:16:13;96602.38;;;10.15;74.03
65010;BME280;51556;50.002;22.014;2023-03-11T03:18:39;96599.33;;;10.16;74.09
65010;BME280;51556;50.002;22.014;2023-03-11T03:21:04;96603.29;;;10.20;73.97
65010;BME280;51556;50.002;22.014;2023-03-11T03:23:30;96598.61;;;10.24;74.09
65010;BME280;51556;50.002;22.014;2023-03-11T03:26:03;96598.38;;;10.27;73.93
65010;BME280;51556;50.002;22.014;2023-03-11T03:28:28;96597.75;;;10.26;73.99
65010;BME280;51556;50.002;22.014;2023-03-11T03:30:53;96597.84;;;10.27;74.01
65010;BME280;51556;50.002;22.014;2023-03-11T03:33:19;96599.48;;;10.24;73.76
65010;BME280;51556;50.002;22.014;2023-03-11T03:35:45;96593.77;;;10.23;74.04
65010;BME280;51556;50.002;22.014;2023-03-11T03:38:11;96590.39;;;10.23;73.98
65010;BME280;51556;50.002;22.014;2023-03-11T03:40:37;96585.98;;;10.24;74.16
65010;BME280;51556;50.002;22.014;2023-03-11T03:43:03;96584.27;;;10.23;73.95
65010;BME280;51556;50.002;22.014;2023-03-11T03:45:28;96581.98;;;10.18;73.93
65010;BME280;51556;50.002;22.014;2023-03-11T03:47:54;96578.04;;;10.16;74.07
65010;BME280;51556;50.002;22.014;2023-03-11T03:50:19;96578.93;;;10.16;74.23
65010;BME280;51556;50.002;22.014;2023-03-11T03:52:45;96580.01;;;10.15;73.96
65010;BME280;51556;50.002;22.014;2023-03-11T03:55:10;96575.39;;;10.18;74.11
65010;BME280;51556;50.002;22.014;2023-03-11T03:57:36;96572.58;;;10.24;74.25
65010;BME280;51556;50.002;22.014;2023-03-11T04:00:02;96567.20;;;10.28;74.32
65010;BME280;51556;50.002;22.014;2023-03-11T04:02:29;96559.27;;;10.28;73.98
65010;BME280;51556;50.002;22.014;2023-03-11T04:04:56;96556.91;;;10.32;73.68
65010;BME280;51556;50.002;22.014;2023-03-11T04:07:21;96558.34;;;10.37;73.61
65010;BME280;51556;50.002;22.014;2023-03-11T04:09:47;96559.40;;;10.39;73.43
65010;BME280;51556;50.002;22.014;2023-03-11T04:12:13;96560.73;;;10.40;73.33
65010;BME280;51556;50.002;22.014;2023-03-11T04:14:40;96563.61;;;10.41;73.46
65010;BME280;51556;50.002;22.014;2023-03-11T04:17:06;96569.42;;;10.39;73.48
65010;BME280;51556;50.002;22.014;2023-03-11T04:19:31;96572.08;;;10.36;73.55
65010;BME280;51556;50.002;22.014;2023-03-11T04:21:57;96572.53;;;10.25;73.29
65010;BME280;51556;50.002;22.014;2023-03-11T04:24:23;96573.80;;;10.19;73.59
65010;BME280;51556;50.002;22.014;2023-03-11T04:26:48;96571.44;;;10.15;73.51
65010;BME280;51556;50.002;22.014;2023-03-11T04:29:13;96568.59;;;10.10;73.24
65010;BME280;51556;50.002;22.014;2023-03-11T04:31:39;96573.73;;;10.07;73.24
65010;BME280;51556;50.002;22.014;2023-03-11T04:34:04;96570.73;;;10.04;73.33
65010;BME280;51556;50.002;22.014;2023-03-11T04:36:30;96571.08;;;9.99;73.53
65010;BME280;51556;50.002;22.014;2023-03-11T04:38:56;96573.88;;;9.97;73.64
65010;BME280;51556;50.002;22.014;2023-03-11T04:41:22;96575.47;;;9.99;73.75
65010;BME280;51556;50.002;22.014;2023-03-11T04:43:47;96570.06;;;10.01;73.48
65010;BME280;51556;50.002;22.014;2023-03-11T04:46:13;96568.05;;;10.02;73.74
65010;BME280;51556;50.002;22.014;2023-03-11T04:48:38;96556.74;;;10.05;73.59
65010;BME280;51556;50.002;22.014;2023-03-11T04:51:04;96555.39;;;10.07;73.68
65010;BME280;51556;50.002;22.014;2023-03-11T04:53:29;96551.29;;;10.11;74.07
65010;BME280;51556;50.002;22.014;2023-03-11T04:55:55;96548.57;;;10.12;73.70
65010;BME280;51556;50.002;22.014;2023-03-11T04:58:20;96548.81;;;10.17;73.91
65010;BME280;51556;50.002;22.014;2023-03-11T05:00:46;96548.15;;;10.22;73.60
65010;BME280;51556;50.002;22.014;2023-03-11T05:03:11;96546.06;;;10.26;73.62
65010;BME280;51556;50.002;22.014;2023-03-11T05:05:37;96544.45;;;10.32;73.38
65010;BME280;51556;50.002;22.014;2023-03-11T05:08:03;96543.96;;;10.36;73.24
65010;BME280;51556;50.002;22.014;2023-03-11T05:10:28;96543.45;;;10.38;73.06
65010;BME280;51556;50.002;22.014;2023-03-11T05:12:54;96538.54;;;10.38;72.80
65010;BME280;51556;50.002;22.014;2023-03-11T05:15:19;96539.23;;;10.36;72.95
65010;BME280;51556;50.002;22.014;2023-03-11T05:17:45;96534.95;;;10.37;73.07
65010;BME280;51556;50.002;22.014;2023-03-11T05:20:11;96536.15;;;10.35;73.00
65010;BME280;51556;50.002;22.014;2023-03-11T05:22:37;96536.85;;;10.35;72.94
65010;BME280;51556;50.002;22.014;2023-03-11T05:25:03;96539.36;;;10.32;73.21
65010;BME280;51556;50.002;22.014;2023-03-11T05:27:29;96547.54;;;10.20;73.11
65010;BME280;51556;50.002;22.014;2023-03-11T05:29:55;96557.57;;;10.09;73.44
65010;BME280;51556;50.002;22.014;2023-03-11T05:32:20;96555.72;;;9.97;73.89
65010;BME280;51556;50.002;22.014;2023-03-11T05:34:46;96557.48;;;9.87;73.72
65010;BME280;51556;50.002;22.014;2023-03-11T05:37:12;96555.07;;;9.79;73.66
65010;BME280;51556;50.002;22.014;2023-03-11T05:39:38;96561.50;;;9.72;73.49
65010;BME280;51556;50.002;22.014;2023-03-11T05:42:04;96560.49;;;9.63;73.27
65010;BME280;51556;50.002;22.014;2023-03-11T05:44:30;96561.43;;;9.49;72.36
65010;BME280;51556;50.002;22.014;2023-03-11T05:46:56;96559.89;;;9.32;72.28
65010;BME280;51556;50.002;22.014;2023-03-11T05:49:21;96562.57;;;9.26;72.18
65010;BME280;51556;50.002;22.014;2023-03-11T05:51:48;96562.64;;;9.20;71.91
65010;BME280;51556;50.002;22.014;2023-03-11T05:54:14;96564.43;;;9.14;71.80
65010;BME280;51556;50.002;22.014;2023-03-11T05:56:40;96558.98;;;9.11;71.71
65010;BME280;51556;50.002;22.014;2023-03-11T05:59:06;96563.11;;;9.10;71.17
65010;BME280;51556;50.002;22.014;2023-03-11T06:01:31;96566.33;;;9.09;71.54
65010;BME280;51556;50.002;22.014;2023-03-11T06:03:57;96573.98;;;9.10;71.23
65010;BME280;51556;50.002;22.014;2023-03-11T06:06:23;96576.77;;;9.08;71.01
65010;BME280;51556;50.002;22.014;2023-03-11T06:08:48;96584.00;;;9.04;70.60
65010;BME280;51556;50.002;22.014;2023-03-11T06:11:15;96588.72;;;9.01;70.28
65010;BME280;51556;50.002;22.014;2023-03-11T06:13:41;96593.16;;;9.01;70.22
65010;BME280;51556;50.002;22.014;2023-03-11T06:16:08;96591.77;;;8.98;70.51
65010;BME280;51556;50.002;22.014;2023-03-11T06:18:34;96591.08;;;9.00;70.38
65010;BME280;51556;50.002;22.014;2023-03-11T06:21:00;96590.41;;;9.00;69.23
65010;BME280;51556;50.002;22.014;2023-03-11T06:23:27;96593.24;;;8.92;69.17
65010;BME280;51556;50.002;22.014;2023-03-11T06:26:03;96593.80;;;8.88;69.37
65010;BME280;51556;50.002;22.014;2023-03-11T06:28:30;96598.13;;;8.87;69.51
65010;BME280;51556;50.002;22.014;2023-03-11T06:30:56;96606.00;;;8.84;69.40
65010;BME280;51556;50.002;22.014;2023-03-11T06:33:30;96605.14;;;8.81;69.00
65010;BME280;51556;50.002;22.014;2023-03-11T06:36:00;96607.15;;;8.80;69.06
65010;BME280;51556;50.002;22.014;2023-03-11T06:38:26;96608.92;;;8.74;68.59
65010;BME280;51556;50.002;22.014;2023-03-11T06:40:52;96609.16;;;8.67;68.25
65010;BME280;51556;50.002;22.014;2023-03-11T06:43:17;96607.69;;;8.65;68.44
65010;BME280;51556;50.002;22.014;2023-03-11T06:45:43;96611.95;;;8.64;68.49
65010;BME280;51556;50.002;22.014;2023-03-11T06:48:08;96616.44;;;8.59;68.03
65010;BME280;51556;50.002;22.014;2023-03-11T06:50:34;96612.70;;;8.57;68.38
65010;BME280;51556;50.002;22.014;2023-03-11T06:52:59;96617.01;;;8.62;67.90
65010;BME280;51556;50.002;22.014;2023-03-11T06:55:27;96619.52;;;8.61;67.57
65010;BME280;51556;50.002;22.014;2023-03-11T06:57:52;96624.67;;;8.59;67.79
65010;BME280;51556;50.002;22.014;2023-03-11T07:00:18;96630.34;;;8.59;68.05
65010;BME280;51556;50.002;22.014;2023-03-11T07:02:43;96632.84;;;8.61;67.59
65010;BME280;51556;50.002;22.014;2023-03-11T07:05:09;96634.96;;;8.63;67.74
65010;BME280;51556;50.002;22.014;2023-03-11T07:07:35;96636.35;;;8.66;67.96
65010;BME280;51556;50.002;22.014;2023-03-11T07:10:00;96633.90;;;8.69;67.43
65010;BME280;51556;50.002;22.014;2023-03-11T07:12:26;96630.43;;;8.75;67.68
65010;BME280;51556;50.002;22.014;2023-03-11T07:14:55;96628.27;;;8.84;67.71
65010;BME280;51556;50.002;22.014;2023-03-11T07:17:21;96626.71;;;8.84;66.69
65010;BME280;51556;50.002;22.014;2023-03-11T07:19:46;96626.98;;;8.82;67.35
65010;BME280;51556;50.002;22.014;2023-03-11T07:22:12;96623.02;;;8.84;67.18
65010;BME280;51556;50.002;22.014;2023-03-11T07:24:37;96626.30;;;8.88;67.39
65010;BME280;51556;50.002;22.014;2023-03-11T07:27:02;96626.70;;;8.87;67.18
65010;BME280;51556;50.002;22.014;2023-03-11T07:29:28;96633.58;;;8.86;65.96
65010;BME280;51556;50.002;22.014;2023-03-11T07:31:53;96636.95;;;8.65;64.76
65010;BME280;51556;50.002;22.014;2023-03-11T07:34:19;96633.98;;;8.65;65.38
65010;BME280;51556;50.002;22.014;2023-03-11T07:36:44;96637.04;;;8.67;65.42
65010;BME280;51556;50.002;22.014;2023-03-11T07:39:14;96637.16;;;8.62;65.47
65010;BME280;51556;50.002;22.014;2023-03-11T07:41:40;96643.81;;;8.48;65.06
65010;BME280;51556;50.002;22.014;2023-03-11T07:44:05;96640.95;;;8.34;65.29
65010;BME280;51556;50.002;22.014;2023-03-11T07:46:31;96640.97;;;8.27;65.19
65010;BME280;51556;50.002;22.014;2023-03-11T07:48:57;96646.73;;;8.16;65.08
65010;BME280;51556;50.002;22.014;2023-03-11T07:51:28;96651.61;;;7.93;65.95
65010;BME280;51556;50.002;22.014;2023-03-11T07:53:55;96662.15;;;7.77;66.52
65010;BME280;51556;50.002;22.014;2023-03-11T07:56:24;96667.32;;;7.70;66.73
65010;BME280;51556;50.002;22.014;2023-03-11T07:58:51;96678.58;;;7.62;67.46
65010;BME280;51556;50.002;22.014;2023-03-11T08:01:21;96675.07;;;7.56;67.40
65010;BME280;51556;50.002;22.014;2023-03-11T08:04:06;96681.08;;;7.43;67.11
65010;BME280;51556;50.002;22.014;2023-03-11T08:06:33;96689.52;;;7.33;66.95
65010;BME280;51556;50.002;22.014;2023-03-11T08:09:00;96685.39;;;7.22;67.08
65010;BME280;51556;50.002;22.014;2023-03-11T08:11:26;96687.36;;;7.24;67.57
65010;BME280;51556;50.002;22.014;2023-03-11T08:13:52;96686.02;;;7.26;68.06
65010;BME280;51556;50.002;22.014;2023-03-11T08:16:19;96688.65;;;7.07;68.18
65010;BME280;51556;50.002;22.014;2023-03-11T08:18:47;96680.07;;;7.07;68.78
65010;BME280;51556;50.002;22.014;2023-03-11T08:21:25;96674.16;;;7.06;68.92
65010;BME280;51556;50.002;22.014;2023-03-11T08:23:51;96673.23;;;7.11;69.14
65010;BME280;51556;50.002;22.014;2023-03-11T08:26:20;96676.11;;;7.06;68.69
65010;BME280;51556;50.002;22.014;2023-03-11T08:28:47;96685.49;;;7.10;69.10
65010;BME280;51556;50.002;22.014;2023-03-11T08:31:22;96688.87;;;7.16;69.20
65010;BME280;51556;50.002;22.014;2023-03-11T08:33:50;96689.00;;;7.07;69.18
65010;BME280;51556;50.002;22.014;2023-03-11T08:36:17;96688.95;;;7.05;69.35
65010;BME280;51556;50.002;22.014;2023-03-11T08:38:43;96704.96;;;7.03;69.25
65010;BME280;51556;50.002;22.014;2023-03-11T08:41:08;96705.94;;;6.88;69.43
65010;BME280;51556;50.002;22.014;2023-03-11T08:43:34;96708.34;;;6.86;69.61
65010;BME280;51556;50.002;22.014;2023-03-11T08:46:01;96717.54;;;6.84;69.46
65010;BME280;51556;50.002;22.014;2023-03-11T08:48:26;96724.47;;;6.78;69.91
65010;BME280;51556;50.002;22.014;2023-03-11T08:50:52;96736.81;;;6.73;69.96
65010;BME280;51556;50.002;22.014;2023-03-11T08:53:17;96744.13;;;6.46;69.60
65010;BME280;51556;50.002;22.014;2023-03-11T08:56:03;96745.11;;;6.40;69.85
65010;BME280;51556;50.002;22.014;2023-03-11T08:58:29;96756.17;;;6.33;70.44
65010;BME280;51556;50.002;22.014;2023-03-11T09:00:54;96759.40;;;6.21;70.46
65010;BME280;51556;50.002;22.014;2023-03-11T09:03:21;96744.65;;;6.19;70.81
65010;BME280;51556;50.002;22.014;2023-03-11T09:05:47;96744.77;;;6.24;70.39
65010;BME280;51556;50.002;22.014;2023-03-11T09:08:12;96744.36;;;6.21;70.85
65010;BME280;51556;50.002;22.014;2023-03-11T09:10:38;96753.83;;;6.17;71.11
65010;BME280;51556;50.002;22.014;2023-03-11T09:13:03;96760.65;;;6.06;71.71
65010;BME280;51556;50.002;22.014;2023-03-11T09:15:29;96771.06;;;5.93;72.24
65010;BME280;51556;50.002;22.014;2023-03-11T09:17:54;96777.75;;;5.98;72.38
65010;BME280;51556;50.002;22.014;2023-03-11T09:20:20;96795.79;;;5.87;70.84
65010;BME280;51556;50.002;22.014;2023-03-11T09:23:07;96797.09;;;5.66;70.40
65010;BME280;51556;50.002;22.014;2023-03-11T09:25:32;96809.51;;;5.51;70.40
65010;BME280;51556;50.002;22.014;2023-03-11T09:27:58;96819.81;;;5.31;70.40
65010;BME280;51556;50.002;22.014;2023-03-11T09:30:23;96827.95;;;5.36;70.23
65010;BME280;51556;50.002;22.014;2023-03-11T09:32:49;96827.27;;;5.28;70.09
65010;BME280;51556;50.002;22.014;2023-03-11T09:35:14;96830.19;;;5.25;70.55
65010;BME280;51556;50.002;22.014;2023-03-11T09:37:39;96834.08;;;5.24;70.82
65010;BME280;51556;50.002;22.014;2023-03-11T09:40:06;96839.13;;;5.21;70.63
65010;BME280;51556;50.002;22.014;2023-03-11T09:45:28;96822.02;;;5.06;70.10
65010;BME280;51556;50.002;22.014;2023-03-11T09:48:03;96838.25;;;5.05;70.38
65010;BME280;51556;50.002;22.014;2023-03-11T09:51:19;96846.95;;;5.06;70.08
65010;BME280;51556;50.002;22.014;2023-03-11T09:53:42;96839.13;;;4.97;70.38
65010;BME280;51556;50.002;22.014;2023-03-11T09:56:11;96830.42;;;5.00;70.55
65010;BME280;51556;50.002;22.014;2023-03-11T09:59:01;96823.81;;;5.01;70.12
65010;BME280;51556;50.002;22.014;2023-03-11T10:01:32;96832.28;;;5.02;70.39
65010;BME280;51556;50.002;22.014;2023-03-11T10:04:11;96836.23;;;5.00;71.05
65010;BME280;51556;50.002;22.014;2023-03-11T10:06:39;96837.90;;;5.01;70.57
65010;BME280;51556;50.002;22.014;2023-03-11T10:14:25;96846.35;;;5.19;70.50
65010;BME280;51556;50.002;22.014;2023-03-11T10:17:03;96845.73;;;5.18;70.82
65010;BME280;51556;50.002;22.014;2023-03-11T10:19:59;96843.21;;;5.19;71.58
65010;BME280;51556;50.002;22.014;2023-03-11T10:25:56;96849.94;;;5.32;71.13
65010;BME280;51556;50.002;22.014;2023-03-11T10:28:43;96857.16;;;5.03;71.04
65010;BME280;51556;50.002;22.014;2023-03-11T10:31:20;96856.99;;;4.99;71.66
65010;BME280;51556;50.002;22.014;2023-03-11T10:33:51;96859.94;;;4.95;72.28
65010;BME280;51556;50.002;22.014;2023-03-11T10:36:22;96859.06;;;4.80;72.80
65010;BME280;51556;50.002;22.014;2023-03-11T10:38:50;96858.20;;;4.80;72.98
65010;BME280;51556;50.002;22.014;2023-03-11T10:41:41;96864.78;;;4.68;73.11
65010;BME280;51556;50.002;22.014;2023-03-11T10:44:16;96875.79;;;4.67;73.62
65010;BME280;51556;50.002;22.014;2023-03-11T10:46:43;96872.68;;;4.62;73.12
65010;BME280;51556;50.002;22.014;2023-03-11T10:49:13;96872.10;;;4.51;72.70
65010;BME280;51556;50.002;22.014;2023-03-11T10:51:41;96875.36;;;4.61;72.67
65010;BME280;51556;50.002;22.014;2023-03-11T10:54:21;96878.59;;;4.67;72.54
65010;BME280;51556;50.002;22.014;2023-03-11T10:56:53;96882.88;;;4.73;71.71
65010;BME280;51556;50.002;22.014;2023-03-11T11:02:47;96891.39;;;4.57;71.07
65010;BME280;51556;50.002;22.014;2023-03-11T11:04:48;96894.61;;;4.63;71.27
65010;BME280;51556;50.002;22.014;2023-03-11T11:07:23;96894.06;;;4.72;71.54
65010;BME280;51556;50.002;22.014;2023-03-11T11:12:36;96901.94;;;4.62;69.55
65010;BME280;51556;50.002;22.014;2023-03-11T11:15:02;96898.59;;;4.68;69.18
65010;BME280;51556;50.002;22.014;2023-03-11T11:17:32;96899.77;;;4.69;69.12
65010;BME280;51556;50.002;22.014;2023-03-11T11:20:00;96915.11;;;4.64;68.76
65010;BME280;51556;50.002;22.014;2023-03-11T11:22:37;96914.67;;;4.49;68.08
65010;BME280;51556;50.002;22.014;2023-03-11T11:25:33;96914.61;;;4.51;68.45
65010;BME280;51556;50.002;22.014;2023-03-11T11:28:13;96912.55;;;4.59;68.46
65010;BME280;51556;50.002;22.014;2023-03-11T11:30:52;96914.71;;;4.61;68.37
65010;BME280;51556;50.002;22.014;2023-03-11T11:33:27;96914.95;;;4.68;68.04
65010;BME280;51556;50.002;22.014;2023-03-11T11:35:56;96927.19;;;4.76;67.26
65010;BME280;51556;50.002;22.014;2023-03-11T11:38:26;96918.86;;;4.75;66.12
65010;BME280;51556;50.002;22.014;2023-03-11T11:40:54;96938.88;;;4.62;66.46
65010;BME280;51556;50.002;22.014;2023-03-11T11:43:31;96931.96;;;4.61;66.83
65010;BME280;51556;50.002;22.014;2023-03-11T11:46:07;96930.41;;;4.69;67.15
65010;BME280;51556;50.002;22.014;2023-03-11T11:51:24;96940.00;;;4.65;66.71
65010;BME280;51556;50.002;22.014;2023-03-11T11:56:26;96938.41;;;4.78;67.60
65010;BME280;51556;50.002;22.014;2023-03-11T11:58:52;96937.25;;;4.93;67.72
65010;BME280;51556;50.002;22.014;2023-03-11T12:01:30;96932.87;;;5.02;67.28
65010;BME280;51556;50.002;22.014;2023-03-11T12:04:19;96935.70;;;4.97;66.70
65010;BME280;51556;50.002;22.014;2023-03-11T12:12:40;96939.60;;;4.83;67.64
65010;BME280;51556;50.002;22.014;2023-03-11T12:18:18;96948.30;;;4.76;68.04
65010;BME280;51556;50.002;22.014;2023-03-11T12:20:53;96952.68;;;4.79;66.79
65010;BME280;51556;50.002;22.014;2023-03-11T12:23:23;96954.83;;;4.74;66.46
65010;BME280;51556;50.002;22.014;2023-03-11T12:28:42;96979.17;;;4.57;68.31
65010;BME280;51556;50.002;22.014;2023-03-11T12:31:11;96996.14;;;4.42;69.36
65010;BME280;51556;50.002;22.014;2023-03-11T12:33:40;96989.06;;;4.27;70.12
65010;BME280;51556;50.002;22.014;2023-03-11T12:36:20;96987.72;;;4.12;69.59
65010;BME280;51556;50.002;22.014;2023-03-11T12:38:48;96992.23;;;4.17;68.66
65010;BME280;51556;50.002;22.014;2023-03-11T12:46:07;97002.68;;;4.22;67.90
65010;BME280;51556;50.002;22.014;2023-03-11T12:49:04;97001.89;;;4.29;67.93
65010;BME280;51556;50.002;22.014;2023-03-11T12:54:26;97017.36;;;4.25;68.08
65010;BME280;51556;50.002;22.014;2023-03-11T12:59:37;97024.28;;;4.21;68.77
65010;BME280;51556;50.002;22.014;2023-03-11T13:07:49;97046.56;;;4.08;67.55
65010;BME280;51556;50.002;22.014;2023-03-11T13:10:35;97049.15;;;4.03;68.01
65010;BME280;51556;50.002;22.014;2023-03-11T13:18:37;97070.33;;;4.00;69.36
65010;BME280;51556;50.002;22.014;2023-03-11T13:21:04;97072.02;;;4.02;68.79
65010;BME280;51556;50.002;22.014;2023-03-11T13:23:35;97076.79;;;4.05;67.73
65010;BME280;51556;50.002;22.014;2023-03-11T13:26:19;97077.02;;;4.03;68.21
65010;BME280;51556;50.002;22.014;2023-03-11T13:32:35;97091.89;;;4.01;68.17
65010;BME280;51556;50.002;22.014;2023-03-11T13:38:16;97111.80;;;3.74;68.33
65010;BME280;51556;50.002;22.014;2023-03-11T13:40:45;97110.77;;;3.69;68.59
65010;BME280;51556;50.002;22.014;2023-03-11T13:43:16;97111.13;;;3.73;68.58
65010;BME280;51556;50.002;22.014;2023-03-11T13:45:48;97119.90;;;3.61;69.55
65010;BME280;51556;50.002;22.014;2023-03-11T13:48:29;97119.17;;;3.62;69.59
65010;BME280;51556;50.002;22.014;2023-03-11T13:51:06;97123.70;;;3.57;70.04
65010;BME280;51556;50.002;22.014;2023-03-11T13:53:44;97135.00;;;3.47;70.62
65010;BME280;51556;50.002;22.014;2023-03-11T13:56:24;97140.08;;;3.40;71.00
65010;BME280;51556;50.002;22.014;2023-03-11T13:58:51;97146.58;;;3.27;72.07
65010;BME280;51556;50.002;22.014;2023-03-11T14:01:17;97153.29;;;3.18;72.80
65010;BME280;51556;50.002;22.014;2023-03-11T14:03:44;97156.58;;;3.08;73.31
65010;BME280;51556;50.002;22.014;2023-03-11T14:06:16;97163.76;;;3.00;74.18
65010;BME280;51556;50.002;22.014;2023-03-11T14:08:51;97165.75;;;2.92;74.67
65010;BME280;51556;50.002;22.014;2023-03-11T14:11:17;97179.04;;;2.72;75.75
65010;BME280;51556;50.002;22.014;2023-03-11T14:13:47;97190.64;;;2.61;75.87
65010;BME280;51556;50.002;22.014;2023-03-11T14:16:21;97192.91;;;2.60;76.08
65010;BME280;51556;50.002;22.014;2023-03-11T14:19:03;97205.71;;;2.50;76.96